Time;durP1;ratioP1;P1;durP2;ratioP2;P2;SDS_P1;SDS_P2;PMS_P1;PMS_P2;Temp;Humidity;BMP_temperature;BMP_pressure;BME280_temperature;BME280_humidity;BME280_pressure;Samples;Min_cycle;Max_cycle;Signal;HPM_P1;HPM_P2
2022/10/15 00:01:51;;;;;;;0.40;0.40;;;;;;;14.76;100.00;97792.38;4123680;28;20206;-50
2022/10/15 00:03:53;;;;;;;0.38;0.38;;;;;;;14.73;100.00;97803.97;4107301;28;20306;-49
2022/10/15 00:05:55;;;;;;;2.75;0.30;;;;;;;14.64;100.00;97806.53;4119750;28;20275;-50
2022/10/15 00:07:57;;;;;;;0.60;0.50;;;;;;;14.67;100.00;97794.13;4121127;28;20248;-49
2022/10/15 00:09:58;;;;;;;0.50;0.50;;;;;;;14.72;100.00;97802.31;4123744;28;20755;-49
2022/10/15 00:12:00;;;;;;;0.57;0.30;;;;;;;14.69;100.00;97802.91;4122648;28;20207;-50
2022/10/15 00:14:02;;;;;;;1.95;0.40;;;;;;;14.64;100.00;97806.53;4123802;28;20318;-49
2022/10/15 00:16:10;;;;;;;0.30;0.30;;;;;;;14.74;100.00;97806.44;4125409;28;20233;-49
2022/10/15 00:18:12;;;;;;;0.30;0.30;;;;;;;14.69;100.00;97805.69;4121784;28;20699;-50
2022/10/15 00:20:14;;;;;;;0.85;0.30;;;;;;;14.74;100.00;97811.94;4108116;28;20301;-49
2022/10/15 00:22:15;;;;;;;0.50;0.50;;;;;;;14.71;100.00;97801.50;4121871;28;20206;-49
2022/10/15 00:24:17;;;;;;;1.13;0.60;;;;;;;14.72;100.00;97802.31;4123458;28;20225;-49
2022/10/15 00:26:21;;;;;;;2.92;0.50;;;;;;;14.72;100.00;97803.16;4108922;28;20241;-49
2022/10/15 00:28:23;;;;;;;0.75;0.40;;;;;;;14.77;100.00;97805.81;4121252;28;20202;-49
2022/10/15 00:30:24;;;;;;;0.38;0.38;;;;;;;14.68;100.00;97799.34;4122827;28;20632;-49
2022/10/15 00:32:26;;;;;;;1.17;0.38;;;;;;;14.69;100.00;97803.72;4119064;28;20229;-50
2022/10/15 00:34:28;;;;;;;1.05;0.95;;;;;;;14.78;100.00;97801.16;4123229;28;20230;-49
2022/10/15 00:36:34;;;;;;;0.45;0.45;;;;;;;14.72;100.00;97800.41;4120462;28;20210;-49
2022/10/15 00:38:36;;;;;;;0.35;0.35;;;;;;;14.72;100.00;97792.13;4122362;28;20256;-49
2022/10/15 00:40:39;;;;;;;1.30;0.30;;;;;;;14.76;100.00;97782.16;4105672;28;20681;-49
2022/10/15 00:42:41;;;;;;;0.50;0.20;;;;;;;14.80;100.00;97785.97;4107683;28;22717;-49
2022/10/15 00:44:48;;;;;;;0.25;0.20;;;;;;;14.79;100.00;97792.59;4124216;28;20229;-50
2022/10/15 00:46:52;;;;;;;0.30;0.30;;;;;;;14.72;100.00;97786.63;4108778;28;20258;-50
2022/10/15 00:49:17;;;;;;;1.08;0.50;;;;;;;14.80;100.00;97794.22;4111103;28;20684;-49
2022/10/15 00:51:18;;;;;;;2.60;0.50;;;;;;;14.79;100.00;97798.09;4105645;28;20206;-49
2022/10/15 00:53:21;;;;;;;0.38;0.32;;;;;;;14.78;100.00;97801.97;4118320;28;20285;-49
2022/10/15 00:55:38;;;;;;;0.40;0.40;;;;;;;14.76;100.00;97803.38;4106117;28;20507;-50
2022/10/15 00:57:40;;;;;;;0.82;0.60;;;;;;;14.80;100.00;97799.75;4104967;28;20337;-49
2022/10/15 00:59:46;;;;;;;0.40;0.40;;;;;;;14.84;100.00;97802.72;4104930;28;20212;-49
2022/10/15 01:01:48;;;;;;;0.45;0.45;;;;;;;14.85;100.00;97799.69;4116942;28;20210;-50
2022/10/15 01:03:52;;;;;;;0.52;0.47;;;;;;;14.83;100.00;97793.63;4119978;28;20240;-50
2022/10/15 01:05:54;;;;;;;0.57;0.50;;;;;;;14.87;100.00;97800.22;4120277;28;20840;-49
2022/10/15 01:07:56;;;;;;;1.30;0.40;;;;;;;14.82;100.00;97802.22;4117700;28;20206;-50
2022/10/15 01:09:58;;;;;;;0.50;0.50;;;;;;;14.87;100.00;97805.72;4117615;28;20628;-50
2022/10/15 01:11:59;;;;;;;0.80;0.52;;;;;;;14.84;100.00;97806.28;4120752;28;20214;-50
2022/10/15 01:14:01;;;;;;;2.15;0.47;;;;;;;14.88;100.00;97801.84;4103528;28;20313;-49
2022/10/15 01:16:09;;;;;;;0.90;0.40;;;;;;;14.87;100.00;97799.38;4103984;28;20203;-49
2022/10/15 01:18:14;;;;;;;0.52;0.52;;;;;;;14.94;100.00;97799.84;4104242;28;20233;-49
2022/10/15 01:21:03;;;;;;;0.30;0.30;;;;;;;14.93;100.00;97796.28;4127810;28;20210;-49
2022/10/15 01:23:42;;;;;;;0.70;0.43;;;;;;;14.91;100.00;97804.00;4088430;28;20281;-50
2022/10/15 01:26:06;;;;;;;0.40;0.40;;;;;;;15.01;100.00;97801.13;4126011;28;20269;-49
2022/10/15 01:29:02;;;;;;;0.70;0.70;;;;;;;14.99;100.00;97802.53;4121275;28;20206;-49
2022/10/15 01:31:14;;;;;;;0.70;0.30;;;;;;;14.98;100.00;97801.72;4044295;29;20977;-50
2022/10/15 01:33:40;;;;;;;0.57;0.55;;;;;;;14.96;100.00;97805.88;4042693;29;20233;-49
2022/10/15 01:35:47;;;;;;;0.50;0.50;;;;;;;15.00;100.00;97798.66;4060658;28;20198;-49
2022/10/15 01:37:49;;;;;;;1.35;0.75;;;;;;;15.03;100.00;97804.38;4120327;28;20310;-49
2022/10/15 01:39:56;;;;;;;1.40;0.60;;;;;;;15.00;100.00;97799.47;4103211;28;20308;-49
2022/10/15 01:42:15;;;;;;;3.50;0.50;;;;;;;15.08;100.00;97801.56;4120144;28;20343;-50
2022/10/15 01:44:19;;;;;;;0.60;0.47;;;;;;;15.06;100.00;97798.31;4085859;28;20257;-50
2022/10/15 01:46:36;;;;;;;0.52;0.52;;;;;;;15.05;100.00;97801.34;4118430;28;20695;-49
2022/10/15 01:48:39;;;;;;;0.40;0.40;;;;;;;15.11;100.00;97795.47;4120541;28;20210;-50
2022/10/15 01:50:50;;;;;;;0.50;0.50;;;;;;;15.07;100.00;97794.44;4120193;28;20272;-49
2022/10/15 01:52:54;;;;;;;2.05;0.60;;;;;;;15.12;100.00;97786.09;4104427;28;20314;-49
2022/10/15 01:54:57;;;;;;;1.90;0.60;;;;;;;15.13;100.00;97790.50;4121496;28;20233;-50
2022/10/15 01:56:59;;;;;;;0.50;0.50;;;;;;;15.10;100.00;97782.00;4107036;28;20206;-49
2022/10/15 01:59:01;;;;;;;1.58;0.43;;;;;;;15.07;100.00;97783.41;4120420;28;20202;-49
2022/10/15 02:01:04;;;;;;;0.85;0.50;;;;;;;15.05;100.00;97790.31;4117977;28;20204;-49
2022/10/15 02:03:06;;;;;;;0.57;0.45;;;;;;;15.09;100.00;97785.88;4119097;28;20211;-49
2022/10/15 02:05:22;;;;;;;2.67;0.65;;;;;;;15.10;100.00;97791.06;4119033;28;20313;-49
2022/10/15 02:07:53;;;;;;;0.98;0.60;;;;;;;15.14;100.00;97794.88;4103413;28;20205;-49
2022/10/15 02:10:00;;;;;;;0.30;0.30;;;;;;;15.09;100.00;97788.63;4120660;28;20295;-49
2022/10/15 02:12:29;;;;;;;0.52;0.50;;;;;;;15.12;100.00;97791.59;4103156;28;20230;-49
2022/10/15 02:14:40;;;;;;;1.35;0.52;;;;;;;15.16;100.00;97795.38;4120238;28;20261;-50
2022/10/15 02:17:09;;;;;;;0.40;0.40;;;;;;;15.15;100.00;97796.50;4115136;28;20249;-49
2022/10/15 02:19:14;;;;;;;0.43;0.43;;;;;;;15.21;100.00;97789.81;4116485;28;20675;-49
2022/10/15 02:21:39;;;;;;;0.82;0.40;;;;;;;15.19;100.00;97793.97;4100982;28;20293;-51
2022/10/15 02:23:59;;;;;;;1.85;0.57;;;;;;;15.20;100.00;97788.19;4118273;28;20240;-51
2022/10/15 02:26:03;;;;;;;1.17;0.50;;;;;;;15.24;100.00;97800.22;4117722;28;20236;-49
2022/10/15 02:28:05;;;;;;;0.93;0.60;;;;;;;15.23;100.00;97798.59;4100934;28;20716;-49
2022/10/15 02:30:08;;;;;;;0.60;0.60;;;;;;;15.27;100.00;97809.84;4117293;28;20670;-49
2022/10/15 02:32:11;;;;;;;0.43;0.43;;;;;;;15.28;100.00;97800.47;4118364;28;20798;-49
2022/10/15 02:34:16;;;;;;;0.73;0.50;;;;;;;15.22;100.00;97808.00;4101651;28;20754;-49
2022/10/15 02:36:18;;;;;;;0.60;0.60;;;;;;;15.27;100.00;97804.34;4104906;28;20745;-49
2022/10/15 02:38:22;;;;;;;0.73;0.63;;;;;;;15.18;100.00;97806.13;4104765;28;20759;-51
2022/10/15 02:40:26;;;;;;;1.10;0.57;;;;;;;15.25;100.00;97798.31;4120121;28;20691;-49
2022/10/15 02:42:28;;;;;;;0.50;0.50;;;;;;;15.23;100.00;97801.34;4121303;28;20707;-49
2022/10/15 02:44:30;;;;;;;2.35;0.52;;;;;;;15.18;100.00;97803.38;4101587;28;20229;-50
2022/10/15 02:46:32;;;;;;;0.50;0.50;;;;;;;15.27;100.00;97809.84;4103630;28;20679;-49
2022/10/15 02:48:34;;;;;;;2.15;0.50;;;;;;;15.29;100.00;97811.19;4117465;28;20276;-49
2022/10/15 02:50:35;;;;;;;0.30;0.30;;;;;;;15.26;100.00;97809.06;4102990;28;20261;-50
2022/10/15 02:52:37;;;;;;;0.50;0.47;;;;;;;15.31;100.00;97800.69;4101732;28;20244;-49
2022/10/15 02:54:39;;;;;;;0.57;0.57;;;;;;;15.25;100.00;97806.56;4099274;28;20872;-50
2022/10/15 02:56:41;;;;;;;0.50;0.50;;;;;;;15.19;100.00;97808.59;4104352;28;20302;-49
2022/10/15 02:58:42;;;;;;;0.40;0.40;;;;;;;15.26;100.00;97809.06;4116756;28;20708;-49
2022/10/15 03:00:44;;;;;;;0.55;0.40;;;;;;;15.28;100.00;97806.81;4117542;28;20205;-50
2022/10/15 03:02:46;;;;;;;1.90;0.57;;;;;;;15.20;100.00;97810.22;4104876;28;20323;-49
2022/10/15 03:04:48;;;;;;;0.63;0.50;;;;;;;15.18;100.00;97812.47;4105814;28;20265;-49
2022/10/15 03:06:50;;;;;;;0.52;0.52;;;;;;;15.22;100.00;97816.25;4119754;28;20241;-50
2022/10/15 03:08:51;;;;;;;0.63;0.40;;;;;;;15.19;100.00;97813.28;4099591;28;20294;-49
2022/10/15 03:10:53;;;;;;;1.55;0.60;;;;;;;15.25;100.00;97821.19;4115323;28;20218;-49
2022/10/15 03:12:55;;;;;;;2.50;0.60;;;;;;;15.13;100.00;97831.81;4116283;28;20210;-50
2022/10/15 03:14:56;;;;;;;0.65;0.65;;;;;;;15.16;100.00;97828.47;4101529;28;20257;-49
2022/10/15 03:16:58;;;;;;;0.68;0.50;;;;;;;15.20;100.00;97825.94;4116160;28;20221;-49
2022/10/15 03:19:00;;;;;;;0.70;0.70;;;;;;;15.13;100.00;97820.81;4115066;28;20644;-50
2022/10/15 03:21:02;;;;;;;0.85;0.60;;;;;;;15.14;100.00;97825.19;4117795;28;20202;-49
2022/10/15 03:23:04;;;;;;;0.95;0.70;;;;;;;15.18;100.00;97826.25;4112613;28;20301;-49
2022/10/15 03:25:06;;;;;;;1.17;0.57;;;;;;;15.14;100.00;97829.88;4102447;28;20289;-49
2022/10/15 03:27:08;;;;;;;0.50;0.50;;;;;;;15.23;100.00;97828.13;4113866;28;20218;-49
2022/10/15 03:29:10;;;;;;;0.65;0.60;;;;;;;15.12;100.00;97830.19;4103859;28;20211;-49
2022/10/15 03:31:13;;;;;;;0.70;0.70;;;;;;;15.07;100.00;97833.00;4115592;28;20280;-50
2022/10/15 03:33:15;;;;;;;0.90;0.70;;;;;;;15.12;100.00;97840.38;4116511;28;20697;-50
2022/10/15 03:35:16;;;;;;;2.17;0.63;;;;;;;15.11;100.00;97834.03;4101392;28;20234;-50
2022/10/15 03:37:18;;;;;;;1.00;0.60;;;;;;;15.06;100.00;97842.41;4116828;28;20206;-49
2022/10/15 03:39:20;;;;;;;0.73;0.70;;;;;;;15.06;100.00;97842.41;4116802;28;20206;-49
2022/10/15 03:41:21;;;;;;;1.00;0.63;;;;;;;15.00;100.00;97839.97;4117555;28;20206;-49
2022/10/15 03:43:24;;;;;;;0.60;0.60;;;;;;;15.01;100.00;97833.34;4101758;28;20199;-50
2022/10/15 03:45:26;;;;;;;0.60;0.60;;;;;;;14.99;100.00;97839.19;4119202;28;20646;-49
2022/10/15 03:47:28;;;;;;;1.52;0.70;;;;;;;15.00;100.00;97843.56;4115290;28;20208;-50
2022/10/15 03:49:29;;;;;;;0.88;0.70;;;;;;;15.06;100.00;97836.88;4101391;28;20203;-50
2022/10/15 03:51:31;;;;;;;0.85;0.70;;;;;;;14.98;100.00;97845.81;4097665;28;20211;-49
2022/10/15 03:53:32;;;;;;;0.95;0.60;;;;;;;15.04;100.00;97852.88;4100111;28;20314;-49
2022/10/15 03:55:34;;;;;;;0.80;0.80;;;;;;;14.96;100.00;97853.53;4114903;28;20236;-49
2022/10/15 03:57:37;;;;;;;0.90;0.70;;;;;;;14.95;100.00;97851.06;4115883;28;20217;-49
2022/10/15 03:59:39;;;;;;;0.60;0.60;;;;;;;14.94;100.00;97854.94;4120281;28;20301;-49
2022/10/15 04:01:42;;;;;;;1.20;0.68;;;;;;;14.90;100.00;97856.66;4118032;28;21178;-50
2022/10/15 04:03:44;;;;;;;1.27;0.60;;;;;;;14.92;100.00;97855.25;4117751;28;20292;-49
2022/10/15 04:05:50;;;;;;;0.70;0.70;;;;;;;14.95;100.00;97851.88;4119014;28;20213;-50
2022/10/15 04:07:56;;;;;;;0.93;0.63;;;;;;;14.90;100.00;97849.19;4119194;28;20206;-49
2022/10/15 04:09:57;;;;;;;0.73;0.70;;;;;;;14.90;100.00;97854.69;4106169;28;20293;-50
2022/10/15 04:11:59;;;;;;;0.50;0.50;;;;;;;14.98;100.00;97865.09;4106466;28;20206;-49
2022/10/15 04:14:01;;;;;;;1.85;0.80;;;;;;;14.94;100.00;97864.03;4106341;28;20218;-49
2022/10/15 04:16:05;;;;;;;0.80;0.80;;;;;;;14.97;100.00;97866.19;4122917;28;20313;-49
2022/10/15 04:18:08;;;;;;;1.25;0.80;;;;;;;14.96;100.00;97870.06;4107806;28;20207;-49
2022/10/15 04:20:10;;;;;;;0.75;0.73;;;;;;;14.91;100.00;97878.38;4122679;28;20214;-49
2022/10/15 04:22:12;;;;;;;0.80;0.70;;;;;;;14.91;100.00;97866.56;4106150;28;20646;-49
2022/10/15 04:24:14;;;;;;;1.83;0.80;;;;;;;14.95;100.00;97873.94;4121993;28;20349;-49
2022/10/15 04:26:16;;;;;;;0.95;0.85;;;;;;;14.87;100.00;97877.34;4122017;28;20222;-49
2022/10/15 04:28:17;;;;;;;2.72;0.75;;;;;;;14.87;100.00;97882.84;4123207;28;20212;-49
2022/10/15 04:30:19;;;;;;;0.95;0.80;;;;;;;14.88;100.00;97884.50;4121720;28;20210;-49
2022/10/15 04:32:21;;;;;;;1.42;0.70;;;;;;;14.91;100.00;97877.56;4105479;28;20208;-51
2022/10/15 04:34:23;;;;;;;1.25;0.75;;;;;;;14.96;100.00;97886.59;4088694;28;20282;-49
2022/10/15 04:36:25;;;;;;;1.00;0.90;;;;;;;14.95;100.00;97878.59;4106206;28;20222;-51
2022/10/15 04:38:27;;;;;;;0.90;0.90;;;;;;;14.91;100.00;97880.31;4106340;28;20211;-49
2022/10/15 04:40:28;;;;;;;1.63;0.90;;;;;;;14.94;100.00;97886.06;4124074;28;20686;-49
2022/10/15 04:42:30;;;;;;;0.93;0.80;;;;;;;14.90;100.00;97885.00;4123815;28;20214;-49
2022/10/15 04:44:32;;;;;;;1.13;1.00;;;;;;;14.97;100.00;97882.72;4121611;28;20237;-50
2022/10/15 04:46:34;;;;;;;1.98;0.70;;;;;;;14.94;100.00;97897.09;4107413;28;20215;-50
2022/10/15 04:48:37;;;;;;;2.13;0.90;;;;;;;14.93;100.00;97887.19;4121902;28;20233;-50
2022/10/15 04:50:43;;;;;;;7.20;1.00;;;;;;;14.95;100.00;97878.59;4119303;28;20213;-49
2022/10/15 04:52:45;;;;;;;4.65;0.90;;;;;;;14.89;100.00;97888.88;4105736;28;20865;-49
2022/10/15 04:54:47;;;;;;;5.53;1.17;;;;;;;14.92;100.00;97891.06;4120473;28;20236;-49
2022/10/15 04:56:48;;;;;;;4.50;1.42;;;;;;;14.93;100.00;97891.88;4091687;28;20242;-49
2022/10/15 04:58:50;;;;;;;1.38;1.20;;;;;;;14.91;100.00;97894.91;4104677;28;20661;-49
2022/10/15 05:00:51;;;;;;;2.10;1.52;;;;;;;14.88;100.00;97895.50;4104152;28;20211;-50
2022/10/15 05:02:53;;;;;;;2.20;1.40;;;;;;;14.87;100.00;97902.13;4105647;28;20214;-49
2022/10/15 05:04:55;;;;;;;2.08;1.88;;;;;;;14.86;100.00;97896.91;4105341;28;20237;-49
2022/10/15 05:06:57;;;;;;;2.00;1.63;;;;;;;14.87;100.00;97893.88;4088509;28;20207;-48
2022/10/15 05:08:58;;;;;;;1.65;1.55;;;;;;;14.84;100.00;97893.63;4084950;28;20214;-49
2022/10/15 05:11:05;;;;;;;2.72;2.53;;;;;;;14.87;100.00;97899.38;4106061;28;20697;-50
2022/10/15 05:13:07;;;;;;;1.98;1.88;;;;;;;14.92;100.00;97906.75;4106476;28;20203;-49
2022/10/15 05:15:09;;;;;;;2.63;2.42;;;;;;;14.89;100.00;97910.13;4120092;28;20234;-50
2022/10/15 05:17:10;;;;;;;2.20;2.08;;;;;;;14.86;100.00;97908.75;4121202;28;20644;-49
2022/10/15 05:19:12;;;;;;;1.83;1.73;;;;;;;14.90;100.00;97909.78;4117893;28;20206;-49
2022/10/15 05:21:14;;;;;;;4.45;2.65;;;;;;;14.88;100.00;97905.69;4119463;28;20318;-51
2022/10/15 05:23:16;;;;;;;5.95;2.50;;;;;;;14.93;100.00;97917.50;4103728;28;20623;-49
2022/10/15 05:25:18;;;;;;;3.08;2.22;;;;;;;14.86;100.00;97917.03;4120247;28;20241;-49
2022/10/15 05:27:20;;;;;;;2.88;2.60;;;;;;;14.89;100.00;97923.88;4122193;28;20214;-50
2022/10/15 05:29:21;;;;;;;3.25;3.05;;;;;;;14.85;100.00;97920.91;4103644;28;20294;-49
2022/10/15 05:31:24;;;;;;;3.00;2.80;;;;;;;14.93;100.00;97920.25;4120772;28;20216;-50
2022/10/15 05:33:26;;;;;;;4.03;3.40;;;;;;;14.85;100.00;97917.31;4104506;28;20226;-50
2022/10/15 05:35:28;;;;;;;3.92;3.50;;;;;;;14.84;100.00;97932.19;4088005;28;20234;-50
2022/10/15 05:37:30;;;;;;;3.08;2.80;;;;;;;14.84;100.00;97932.19;4122352;28;20545;-51
2022/10/15 05:39:31;;;;;;;3.55;3.25;;;;;;;14.84;100.00;97938.50;4119962;28;20209;-49
2022/10/15 05:41:33;;;;;;;6.00;3.72;;;;;;;14.81;100.00;97939.09;4102646;28;20206;-51
2022/10/15 05:43:35;;;;;;;4.88;3.55;;;;;;;14.81;100.00;97939.09;4122038;28;20300;-49
2022/10/15 05:45:41;;;;;;;4.50;2.55;;;;;;;14.77;100.00;97937.22;4120726;28;20225;-49
2022/10/15 05:47:43;;;;;;;2.60;2.00;;;;;;;14.78;100.00;97939.69;4106150;28;20661;-50
2022/10/15 05:49:45;;;;;;;2.75;2.17;;;;;;;14.78;100.00;97945.22;4120026;28;20212;-50
2022/10/15 05:51:46;;;;;;;3.30;2.20;;;;;;;14.76;100.00;97947.41;4122603;28;20309;-49
2022/10/15 05:53:51;;;;;;;2.20;1.65;;;;;;;14.71;100.00;97943.91;4119334;28;20259;-49
2022/10/15 05:55:53;;;;;;;2.20;2.00;;;;;;;14.67;100.00;97949.16;4121196;28;20643;-49
2022/10/15 05:58:00;;;;;;;2.28;2.10;;;;;;;14.71;100.00;97955.72;4119359;28;20217;-51
2022/10/15 06:00:03;;;;;;;2.00;1.48;;;;;;;14.70;100.00;97943.06;4119375;28;20668;-50
2022/10/15 06:02:05;;;;;;;2.47;2.10;;;;;;;14.76;100.00;97947.41;4118148;28;20210;-49
2022/10/15 06:04:08;;;;;;;2.75;1.70;;;;;;;14.67;100.00;97953.84;4123803;28;20394;-50
2022/10/15 06:06:19;;;;;;;8.00;1.40;;;;;;;14.59;100.00;97958.06;4119902;28;20198;-49
2022/10/15 06:08:21;;;;;;;1.38;1.27;;;;;;;14.61;100.00;97944.81;4104778;28;20303;-49
2022/10/15 06:10:23;;;;;;;3.60;1.50;;;;;;;14.57;100.00;97957.50;4119554;28;20214;-51
2022/10/15 06:12:24;;;;;;;1.10;1.10;;;;;;;14.58;100.00;97950.88;4119959;28;20212;-49
2022/10/15 06:14:30;;;;;;;1.05;1.05;;;;;;;14.58;100.00;97956.41;4119132;28;20254;-51
2022/10/15 06:16:32;;;;;;;1.60;1.50;;;;;;;14.56;100.00;97955.88;4120975;28;20202;-49
2022/10/15 06:18:34;;;;;;;2.17;1.70;;;;;;;14.54;100.00;97965.53;4104489;28;20214;-49
2022/10/15 06:20:36;;;;;;;1.90;1.50;;;;;;;14.58;100.00;97961.09;4122399;28;20248;-49
2022/10/15 06:22:38;;;;;;;4.15;1.42;;;;;;;14.60;100.00;97967.97;4105248;28;20417;-50
2022/10/15 06:24:40;;;;;;;1.65;1.50;;;;;;;14.57;100.00;97967.72;4117213;28;20310;-49
2022/10/15 06:26:41;;;;;;;1.80;1.70;;;;;;;14.56;100.00;97975.16;4104684;28;20207;-50
2022/10/15 06:28:43;;;;;;;1.98;1.85;;;;;;;14.59;100.00;97963.56;4121170;28;20210;-49
2022/10/15 06:30:48;;;;;;;2.10;1.83;;;;;;;14.49;100.00;97969.16;4105433;28;21392;-50
2022/10/15 06:32:51;;;;;;;4.45;1.90;;;;;;;14.61;100.00;97966.84;4122833;28;20237;-49
2022/10/15 06:34:53;;;;;;;1.83;1.73;;;;;;;14.57;100.00;97974.03;4122476;28;20238;-49
2022/10/15 06:36:55;;;;;;;2.60;2.35;;;;;;;14.60;100.00;97978.13;4106958;28;20220;-49
2022/10/15 06:38:56;;;;;;;2.08;1.88;;;;;;;14.50;100.00;97979.03;4120590;28;20690;-50
2022/10/15 06:40:58;;;;;;;4.20;2.03;;;;;;;14.57;100.00;97970.47;4122251;28;20763;-49
2022/10/15 06:43:06;;;;;;;2.45;2.25;;;;;;;14.55;100.00;97979.00;4124233;28;20210;-49
2022/10/15 06:45:09;;;;;;;2.40;2.20;;;;;;;14.55;100.00;97987.28;4105568;28;20225;-49
2022/10/15 06:47:11;;;;;;;2.83;2.42;;;;;;;14.51;100.00;97985.38;4123743;28;20255;-50
2022/10/15 06:49:13;;;;;;;2.33;2.13;;;;;;;14.56;100.00;97980.66;4125998;28;20293;-49
2022/10/15 06:51:14;;;;;;;3.42;1.65;;;;;;;14.56;100.00;97991.66;4095648;28;20207;-49
2022/10/15 06:53:16;;;;;;;1.80;1.70;;;;;;;14.57;100.00;97993.31;4104294;28;20202;-50
2022/10/15 06:55:18;;;;;;;2.10;1.90;;;;;;;14.50;100.00;97984.56;4105018;28;20234;-49
2022/10/15 06:57:20;;;;;;;2.13;1.70;;;;;;;14.54;100.00;97985.63;4119396;28;20221;-49
2022/10/15 06:59:22;;;;;;;2.15;1.58;;;;;;;14.55;100.00;97995.53;4118057;28;20260;-51
2022/10/15 07:01:23;;;;;;;2.00;1.80;;;;;;;14.55;100.00;97990.03;4104612;28;20628;-49
2022/10/15 07:03:26;;;;;;;1.40;1.30;;;;;;;14.54;100.00;97993.91;4118936;28;20215;-48
2022/10/15 07:05:27;;;;;;;2.35;1.60;;;;;;;14.56;100.00;97991.66;4106271;28;20309;-49
2022/10/15 07:07:29;;;;;;;1.60;1.50;;;;;;;14.53;100.00;97997.75;4091998;28;20749;-49
2022/10/15 07:09:31;;;;;;;1.45;1.35;;;;;;;14.55;100.00;97995.53;4126140;28;20213;-51
2022/10/15 07:11:33;;;;;;;5.90;2.58;;;;;;;14.56;100.00;98001.88;4108727;28;20701;-49
2022/10/15 07:13:35;;;;;;;1.60;1.48;;;;;;;14.64;100.00;97993.78;4110422;28;20272;-50
2022/10/15 07:15:36;;;;;;;1.73;1.63;;;;;;;14.58;100.00;97994.94;4107679;28;20276;-49
2022/10/15 07:17:38;;;;;;;2.30;1.95;;;;;;;14.64;100.00;97993.78;4119944;28;20214;-50
2022/10/15 07:19:40;;;;;;;3.25;2.40;;;;;;;14.71;100.00;98005.28;4110447;28;20198;-49
2022/10/15 07:21:42;;;;;;;2.08;1.50;;;;;;;14.62;100.00;98004.28;4112960;28;20210;-49
2022/10/15 07:23:43;;;;;;;2.30;1.67;;;;;;;14.70;100.00;98003.66;4110119;28;20212;-50
2022/10/15 07:25:45;;;;;;;1.50;1.40;;;;;;;14.70;100.00;98008.38;4125143;28;20217;-49
2022/10/15 07:27:47;;;;;;;2.58;1.30;;;;;;;14.70;100.00;98006.41;4124071;28;20206;-49
2022/10/15 07:29:48;;;;;;;1.30;1.20;;;;;;;14.67;100.00;98006.16;4104254;28;20294;-50
2022/10/15 07:31:50;;;;;;;1.20;1.10;;;;;;;14.71;100.00;98005.28;4122420;28;20834;-49
2022/10/15 07:33:52;;;;;;;1.90;1.17;;;;;;;14.75;100.00;98008.28;4105867;28;20246;-50
2022/10/15 07:35:53;;;;;;;1.20;1.10;;;;;;;14.76;100.00;98002.50;4121146;28;20647;-49
2022/10/15 07:37:55;;;;;;;2.15;1.13;;;;;;;14.81;100.00;98005.22;4106478;28;20214;-50
2022/10/15 07:39:57;;;;;;;1.00;1.00;;;;;;;14.75;100.00;98006.38;4104216;28;20214;-49
2022/10/15 07:41:59;;;;;;;1.60;1.38;;;;;;;14.89;100.00;98004.59;4123541;28;20213;-50
2022/10/15 07:44:00;;;;;;;1.13;1.13;;;;;;;14.86;100.00;98018.13;4121467;28;20214;-48
2022/10/15 07:46:03;;;;;;;3.72;1.92;;;;;;;14.87;100.00;98020.59;4121218;28;20211;-50
2022/10/15 07:48:07;;;;;;;1.73;1.40;;;;;;;14.91;100.00;98016.13;4105830;28;20209;-50
2022/10/15 07:50:09;;;;;;;2.03;1.40;;;;;;;14.94;100.00;98010.06;4119217;28;20206;-50
2022/10/15 07:52:10;;;;;;;3.88;1.13;;;;;;;14.91;100.00;98016.13;4105887;28;20323;-50
2022/10/15 07:54:12;;;;;;;2.70;1.63;;;;;;;14.88;100.00;98011.22;4106871;28;20230;-50
2022/10/15 07:56:14;;;;;;;2.72;1.40;;;;;;;14.92;100.00;98008.69;4121392;28;20732;-50
2022/10/15 07:58:16;;;;;;;1.52;1.42;;;;;;;14.90;100.00;98008.97;4122672;28;20281;-52
2022/10/15 08:00:18;;;;;;;3.05;1.10;;;;;;;14.89;100.00;98026.63;4120184;28;20216;-50
2022/10/15 08:02:21;;;;;;;6.22;2.10;;;;;;;14.93;100.00;98024.94;4119609;28;20256;-50
2022/10/15 08:04:23;;;;;;;5.22;4.80;;;;;;;14.98;100.00;98021.31;4102863;28;20277;-50
2022/10/15 08:06:25;;;;;;;2.45;1.80;;;;;;;14.95;100.00;98027.41;4122747;28;20202;-52
2022/10/15 08:08:27;;;;;;;1.48;1.38;;;;;;;14.92;100.00;98023.31;4119671;28;20286;-50
2022/10/15 08:10:28;;;;;;;1.65;1.55;;;;;;;15.03;100.00;98019.31;4120595;28;20710;-50
2022/10/15 08:12:34;;;;;;;1.73;1.55;;;;;;;15.04;100.00;98026.47;4124473;28;21761;-50
2022/10/15 08:14:37;;;;;;;1.35;1.25;;;;;;;14.97;100.00;98020.47;4090087;28;20235;-51
2022/10/15 08:16:39;;;;;;;1.33;1.02;;;;;;;15.05;100.00;98028.16;4105375;28;20210;-50
2022/10/15 08:18:41;;;;;;;1.38;1.20;;;;;;;15.06;100.00;98023.44;4118931;28;20235;-50
2022/10/15 08:20:43;;;;;;;5.47;2.88;;;;;;;15.10;100.00;98019.81;4119680;28;20245;-53
2022/10/15 08:22:44;;;;;;;1.23;1.05;;;;;;;15.07;100.00;98019.56;4122101;28;20718;-53
2022/10/15 08:24:46;;;;;;;1.15;1.05;;;;;;;15.08;100.00;98016.53;4122375;28;20218;-53
2022/10/15 08:26:48;;;;;;;2.45;1.30;;;;;;;15.20;100.00;98024.41;4120477;28;20329;-51
2022/10/15 08:28:49;;;;;;;1.92;0.95;;;;;;;15.10;100.00;98025.31;4102480;28;20294;-52
2022/10/15 08:30:51;;;;;;;2.97;1.17;;;;;;;15.05;100.00;98022.63;4121891;28;20205;-52
2022/10/15 08:33:02;;;;;;;2.38;1.08;;;;;;;15.02;100.00;98017.69;4124320;28;20248;-49
2022/10/15 08:35:10;;;;;;;2.33;1.00;;;;;;;15.06;100.00;98029.78;4110502;28;20609;-49
2022/10/15 08:37:12;;;;;;;3.53;1.52;;;;;;;15.07;100.00;98025.91;4104130;28;20203;-51
2022/10/15 08:39:15;;;;;;;1.00;1.00;;;;;;;15.09;100.00;98029.19;4124107;28;20221;-49
2022/10/15 08:41:29;;;;;;;0.90;0.90;;;;;;;15.09;100.00;98029.19;4123358;28;20229;-51
2022/10/15 08:43:38;;;;;;;2.05;1.00;;;;;;;15.11;100.00;98037.97;4124275;28;20213;-48
2022/10/15 08:45:44;;;;;;;1.45;0.80;;;;;;;15.23;100.00;98045.88;4125357;28;20226;-48
2022/10/15 08:47:50;;;;;;;0.88;0.82;;;;;;;15.19;100.00;98040.13;4122731;28;22509;-49
2022/10/15 08:49:59;;;;;;;1.15;0.70;;;;;;;15.30;100.00;98044.41;4125796;28;20653;-48
2022/10/15 08:52:11;;;;;;;0.80;0.80;;;;;;;15.31;100.00;98043.28;4123835;28;20798;-49
2022/10/15 08:54:16;;;;;;;0.88;0.88;;;;;;;15.34;100.00;98044.66;4105609;28;20231;-49
2022/10/15 08:56:23;;;;;;;1.17;1.13;;;;;;;15.36;100.00;98048.78;4123068;28;20255;-48
2022/10/15 08:59:04;;;;;;;1.55;1.30;;;;;;;15.45;100.00;98049.81;4122411;28;20324;-51
2022/10/15 09:01:16;;;;;;;1.45;1.27;;;;;;;15.39;100.00;98059.25;4123038;28;20244;-49
2022/10/15 09:03:44;;;;;;;1.38;1.27;;;;;;;15.33;100.00;98049.38;4120892;28;20205;-49
2022/10/15 09:06:07;;;;;;;1.80;1.00;;;;;;;15.35;100.00;98051.84;4104643;28;20201;-51
2022/10/15 09:08:13;;;;;;;3.20;2.90;;;;;;;15.35;100.00;98055.41;4122817;28;20214;-49
2022/10/15 09:10:22;;;;;;;1.60;1.23;;;;;;;15.40;100.00;98051.78;4120566;28;20324;-49
2022/10/15 09:12:48;;;;;;;1.48;1.38;;;;;;;15.40;100.00;98046.25;4106285;28;20207;-48
2022/10/15 09:14:51;;;;;;;1.98;1.88;;;;;;;15.51;100.00;98043.09;4114621;28;20234;-53
2022/10/15 09:16:59;;;;;;;5.05;2.30;;;;;;;15.51;100.00;98050.56;4102010;28;22592;-51
2022/10/15 09:19:03;;;;;;;1.13;1.00;;;;;;;15.62;100.00;98044.63;4118008;28;20218;-49
2022/10/15 09:21:05;;;;;;;1.95;1.08;;;;;;;15.70;100.00;98055.00;4118264;28;20297;-49
2022/10/15 09:23:15;;;;;;;1.05;0.60;;;;;;;15.74;100.00;98050.56;4121511;28;20198;-48
2022/10/15 09:25:20;;;;;;;0.88;0.88;;;;;;;15.76;100.00;98045.56;4098260;28;20893;-48
2022/10/15 09:27:38;;;;;;;1.02;0.75;;;;;;;15.83;100.00;98051.53;4118536;28;20206;-48
2022/10/15 09:29:50;;;;;;;0.90;0.70;;;;;;;15.86;100.00;98055.66;4115715;28;20209;-50
2022/10/15 09:32:20;;;;;;;1.77;1.17;;;;;;;15.82;100.00;98055.44;4118259;28;20203;-48
2022/10/15 09:34:32;;;;;;;1.10;0.95;;;;;;;15.90;100.00;98057.53;4103195;28;20227;-47
2022/10/15 09:36:48;;;;;;;0.85;0.85;;;;;;;15.91;100.00;98053.66;4105997;28;20603;-49
2022/10/15 09:39:16;;;;;;;1.02;0.80;;;;;;;15.95;100.00;98053.91;4119673;28;20857;-48
2022/10/15 09:41:39;;;;;;;1.17;1.02;;;;;;;16.00;100.00;98057.41;4094250;28;20215;-49